Governador Dix-Sept Rosado, Brazil
Current Conditions -  °F | °C
As of 11:00 AM on Wednesday 22 Oct 2014 (Local Time) from SBFZ Reporting Station
Scattered Clouds Scattered Clouds  
Wind Chill: 86°   Ceiling: Unl
Heat Index: 88°   Visibility: 6mi
Dew Point: 66°   Wind: 22mph
Humidity: 51%   Direction: 100°E
Pressure: 29.94"   Gusts: NA
Location:  5.45°S, 37.52°W
Report Text: SBFZ 221400Z 10019KT 9999 SCT025 30/19 Q1014
Loading
Personal Weather Stations






























Interactive Weather Map
Tropical Storm Tracking
New forecast layout! Learn more

10-Day Weather Forecast

Advertisements
Track Severe Weather on mobile